Time;durP1;ratioP1;P1;durP2;ratioP2;P2;SDS_P1;SDS_P2;PMS_P1;PMS_P2;Temp;Humidity;BMP_temperature;BMP_pressure;BME280_temperature;BME280_humidity;BME280_pressure;Samples;Min_cycle;Max_cycle;Signal;HPM_P1;HPM_P2
2020/12/24 00:00:39;;;;;;;14.77;4.68;;;6.00;98.30;;;;;;4989897;28;20033;-75
2020/12/24 00:03:05;;;;;;;18.40;4.00;;;6.00;98.30;;;;;;5024467;28;20076;-75
2020/12/24 00:05:31;;;;;;;12.73;3.63;;;6.00;98.20;;;;;;5010840;28;20097;-74
2020/12/24 00:07:56;;;;;;;12.88;4.78;;;5.90;98.30;;;;;;5013637;28;20485;-75
2020/12/24 00:10:22;;;;;;;12.13;4.13;;;5.90;98.30;;;;;;4991198;28;20030;-75
2020/12/24 00:12:48;;;;;;;11.05;3.40;;;5.90;98.30;;;;;;5026304;28;20060;-75
2020/12/24 00:15:16;;;;;;;9.80;4.00;;;5.90;98.30;;;;;;5009087;28;20068;-75
2020/12/24 00:17:42;;;;;;;11.93;3.55;;;5.90;98.30;;;;;;5008993;28;20056;-75
2020/12/24 00:20:07;;;;;;;15.23;4.22;;;5.80;98.30;;;;;;5006976;28;20504;-75
2020/12/24 00:22:33;;;;;;;14.98;3.65;;;5.70;98.20;;;;;;5004072;28;20032;-75
2020/12/24 00:24:59;;;;;;;11.68;3.90;;;5.70;98.30;;;;;;5009405;28;20033;-75
2020/12/24 00:27:25;;;;;;;7.50;2.90;;;5.70;98.30;;;;;;4988778;28;20112;-75
2020/12/24 00:29:51;;;;;;;13.43;3.10;;;5.70;98.30;;;;;;5007927;28;20038;-75
2020/12/24 00:32:17;;;;;;;5.93;2.63;;;5.70;98.20;;;;;;5006844;28;20029;-75
2020/12/24 00:34:43;;;;;;;12.30;3.17;;;5.70;98.30;;;;;;5022796;28;20496;-75
2020/12/24 00:37:09;;;;;;;9.38;2.95;;;5.70;98.30;;;;;;5011762;28;20049;-75
2020/12/24 00:39:34;;;;;;;15.15;3.05;;;5.70;98.30;;;;;;4991395;28;20029;-75
2020/12/24 00:42:00;;;;;;;7.15;2.92;;;5.70;98.40;;;;;;4988731;28;20040;-75
2020/12/24 00:44:26;;;;;;;9.75;3.00;;;5.70;98.40;;;;;;5023636;28;20080;-75
2020/12/24 00:46:52;;;;;;;9.73;3.00;;;5.70;98.40;;;;;;5000966;28;20057;-75
2020/12/24 00:49:18;;;;;;;7.93;2.53;;;5.60;98.10;;;;;;5001191;28;20568;-75
2020/12/24 00:51:43;;;;;;;12.35;2.92;;;5.60;98.20;;;;;;5017594;28;20124;-75
2020/12/24 00:54:09;;;;;;;10.10;2.97;;;5.60;98.30;;;;;;4998670;28;20523;-75
2020/12/24 00:56:35;;;;;;;8.10;2.10;;;5.70;98.40;;;;;;4998696;28;20036;-75
2020/12/24 00:59:01;;;;;;;8.45;2.85;;;5.60;98.40;;;;;;5004457;28;20421;-75
2020/12/24 01:01:27;;;;;;;9.23;2.30;;;5.70;98.40;;;;;;5001398;28;21098;-75
2020/12/24 01:03:53;;;;;;;9.15;2.50;;;5.70;98.40;;;;;;5006992;28;20431;-75
2020/12/24 01:06:18;;;;;;;12.68;2.13;;;5.70;98.10;;;;;;5007384;28;20104;-75
2020/12/24 01:08:44;;;;;;;7.75;2.28;;;5.70;98.10;;;;;;4994832;28;20030;-75
2020/12/24 01:11:10;;;;;;;10.75;3.28;;;5.60;98.10;;;;;;5027371;28;20033;-75
2020/12/24 01:13:39;;;;;;;11.52;2.35;;;5.60;98.00;;;;;;5025802;28;20125;-75
2020/12/24 01:16:06;;;;;;;6.97;2.60;;;5.50;98.00;;;;;;5024188;28;20044;-77
2020/12/24 01:18:32;;;;;;;12.38;2.33;;;5.50;98.10;;;;;;5019659;28;20036;-77
2020/12/24 01:20:57;;;;;;;9.98;1.98;;;5.50;98.20;;;;;;5003241;28;20037;-77
2020/12/24 01:23:23;;;;;;;3.55;1.90;;;5.50;98.10;;;;;;5006039;28;20472;-76
2020/12/24 01:25:49;;;;;;;8.05;2.08;;;5.50;98.20;;;;;;5021033;28;20489;-77
2020/12/24 01:28:15;;;;;;;7.68;2.28;;;5.50;98.20;;;;;;5004957;28;20022;-76
2020/12/24 01:30:40;;;;;;;12.40;1.80;;;5.50;98.00;;;;;;5025448;28;20033;-76
2020/12/24 01:33:06;;;;;;;10.70;2.15;;;5.50;98.10;;;;;;5007391;28;20069;-76
2020/12/24 01:35:32;;;;;;;4.72;1.77;;;5.50;98.10;;;;;;5007865;28;20481;-76
2020/12/24 01:37:57;;;;;;;8.85;2.30;;;5.50;98.20;;;;;;5006633;28;20133;-76
2020/12/24 01:40:23;;;;;;;9.88;2.15;;;5.40;98.10;;;;;;5006973;28;20040;-76
2020/12/24 01:42:49;;;;;;;6.90;2.13;;;5.40;98.30;;;;;;4991174;28;20545;-76
2020/12/24 01:45:15;;;;;;;6.43;2.20;;;5.40;98.20;;;;;;5005645;28;20025;-76
2020/12/24 01:47:41;;;;;;;7.03;2.03;;;5.40;98.30;;;;;;5007644;28;20103;-76
2020/12/24 01:50:06;;;;;;;11.18;2.20;;;5.50;98.30;;;;;;5008294;28;20033;-76
2020/12/24 01:52:35;;;;;;;12.73;2.30;;;5.40;98.30;;;;;;5007894;28;20060;-76
2020/12/24 01:55:08;;;;;;;11.48;2.72;;;5.40;98.20;;;;;;5021784;28;20095;-76
2020/12/24 01:57:35;;;;;;;10.20;2.60;;;5.40;98.20;;;;;;5007475;28;20384;-76
2020/12/24 02:00:06;;;;;;;7.00;2.50;;;5.40;98.30;;;;;;5001547;28;20022;-76
2020/12/24 02:02:32;;;;;;;9.70;2.70;;;5.40;98.30;;;;;;5028223;28;20516;-76
2020/12/24 02:04:58;;;;;;;7.05;2.75;;;5.40;98.30;;;;;;5008519;28;20030;-76
2020/12/24 02:07:24;;;;;;;10.35;3.03;;;5.30;98.20;;;;;;5009152;28;20032;-75
2020/12/24 02:09:50;;;;;;;9.98;3.28;;;5.30;98.30;;;;;;4994648;28;20040;-77
2020/12/24 02:12:17;;;;;;;13.55;3.13;;;5.30;98.30;;;;;;5024617;28;20026;-76
2020/12/24 02:14:43;;;;;;;8.43;2.80;;;5.30;98.30;;;;;;5008789;28;20481;-76
2020/12/24 02:17:10;;;;;;;12.00;2.80;;;5.30;98.30;;;;;;5005251;28;20033;-76
2020/12/24 02:19:36;;;;;;;14.52;3.20;;;5.30;98.40;;;;;;5013710;28;20034;-76
2020/12/24 02:22:03;;;;;;;7.57;2.88;;;5.30;98.20;;;;;;5014237;28;20029;-76
2020/12/24 02:24:28;;;;;;;7.97;2.75;;;5.30;98.30;;;;;;5029597;28;20080;-76
2020/12/24 02:26:54;;;;;;;6.68;2.40;;;5.30;98.30;;;;;;5011036;28;20481;-76
2020/12/24 02:29:21;;;;;;;8.85;2.90;;;5.30;98.30;;;;;;5022037;28;20022;-76
2020/12/24 02:31:48;;;;;;;13.65;3.08;;;5.20;98.30;;;;;;5010213;28;20510;-76
2020/12/24 02:34:14;;;;;;;7.10;3.00;;;5.20;98.40;;;;;;4997480;28;20159;-76
2020/12/24 02:36:40;;;;;;;7.95;2.63;;;5.20;98.30;;;;;;5031119;28;20112;-76
2020/12/24 02:39:06;;;;;;;8.60;3.00;;;5.20;98.20;;;;;;5027071;28;20072;-77
2020/12/24 02:41:31;;;;;;;11.40;3.65;;;5.10;98.20;;;;;;5010215;28;20025;-75
2020/12/24 02:43:57;;;;;;;11.23;3.10;;;5.10;98.30;;;;;;5031847;28;20507;-77
2020/12/24 02:46:23;;;;;;;6.70;3.00;;;5.10;98.40;;;;;;4995319;28;20076;-77
2020/12/24 02:48:48;;;;;;;9.85;4.05;;;5.10;98.40;;;;;;5011429;28;20473;-75
2020/12/24 02:51:15;;;;;;;12.93;4.07;;;5.00;98.40;;;;;;5010109;28;20040;-77
2020/12/24 02:53:40;;;;;;;11.70;4.00;;;5.00;98.40;;;;;;5008622;28;20038;-76
2020/12/24 02:56:06;;;;;;;9.30;3.97;;;5.00;98.40;;;;;;5009400;28;20041;-74
2020/12/24 02:58:32;;;;;;;11.15;3.80;;;5.00;98.50;;;;;;5012972;28;20112;-76
2020/12/24 03:00:57;;;;;;;8.77;3.45;;;5.10;98.60;;;;;;5010009;28;20033;-76
2020/12/24 03:03:26;;;;;;;9.25;3.17;;;5.10;98.50;;;;;;5010975;28;20485;-76
2020/12/24 03:05:52;;;;;;;11.82;2.78;;;5.10;98.50;;;;;;5010712;28;20029;-76
2020/12/24 03:08:19;;;;;;;6.43;2.67;;;5.10;98.50;;;;;;5011210;28;20390;-76
2020/12/24 03:10:45;;;;;;;12.50;3.00;;;5.10;98.50;;;;;;4995414;28;20030;-76
2020/12/24 03:13:12;;;;;;;5.65;3.10;;;5.10;98.50;;;;;;5018368;28;20033;-76
2020/12/24 03:15:37;;;;;;;7.45;2.72;;;5.00;98.40;;;;;;4993204;28;20036;-76
2020/12/24 03:18:03;;;;;;;9.48;2.97;;;5.00;98.40;;;;;;5007971;28;20025;-76
2020/12/24 03:20:29;;;;;;;6.95;2.70;;;4.90;98.50;;;;;;5002210;28;20493;-76
2020/12/24 03:22:54;;;;;;;6.10;2.53;;;4.90;98.40;;;;;;5002591;28;20025;-76
2020/12/24 03:25:20;;;;;;;7.25;2.55;;;4.80;98.40;;;;;;4995278;28;20022;-76
2020/12/24 03:27:46;;;;;;;3.67;2.05;;;4.90;98.50;;;;;;5014725;28;20029;-76
2020/12/24 03:30:11;;;;;;;4.47;2.20;;;4.80;98.30;;;;;;5013329;28;20022;-76
2020/12/24 03:32:37;;;;;;;5.90;2.10;;;4.80;98.40;;;;;;5005200;28;20108;-76
2020/12/24 03:35:04;;;;;;;4.85;2.30;;;4.80;98.50;;;;;;5016222;28;20082;-76
2020/12/24 03:37:30;;;;;;;5.78;2.38;;;4.70;98.40;;;;;;4996658;28;20554;-75
2020/12/24 03:39:56;;;;;;;3.45;2.17;;;4.80;98.50;;;;;;5010415;28;20025;-77
2020/12/24 03:42:21;;;;;;;5.13;2.00;;;4.70;98.40;;;;;;5011236;28;20033;-75
2020/12/24 03:44:47;;;;;;;4.80;2.20;;;4.70;98.40;;;;;;5013038;28;20026;-76
2020/12/24 03:47:13;;;;;;;6.28;2.25;;;4.70;98.50;;;;;;4994910;28;20168;-76
2020/12/24 03:49:38;;;;;;;7.65;2.30;;;4.70;98.50;;;;;;5017310;28;20022;-76
2020/12/24 03:52:04;;;;;;;6.00;2.13;;;4.70;98.50;;;;;;5037194;28;20495;-76
2020/12/24 03:54:30;;;;;;;7.53;2.10;;;4.70;98.40;;;;;;5000914;28;20495;-76
2020/12/24 03:56:55;;;;;;;7.55;2.20;;;4.70;98.40;;;;;;4994428;28;20026;-76
2020/12/24 03:59:22;;;;;;;3.15;1.98;;;4.70;98.40;;;;;;5012271;28;20056;-76
2020/12/24 04:01:48;;;;;;;4.60;2.08;;;4.70;98.40;;;;;;4994393;28;20124;-76
2020/12/24 04:04:13;;;;;;;3.65;2.10;;;4.70;98.50;;;;;;5014963;28;20495;-76
2020/12/24 04:06:39;;;;;;;6.03;2.67;;;4.70;98.50;;;;;;4993927;28;20037;-76
2020/12/24 04:09:05;;;;;;;4.95;1.92;;;4.70;98.40;;;;;;5011284;28;20120;-76
2020/12/24 04:11:30;;;;;;;5.15;2.42;;;4.70;98.30;;;;;;5013922;28;20728;-76
2020/12/24 04:13:56;;;;;;;5.57;2.65;;;4.70;98.40;;;;;;4996752;28;20400;-76
2020/12/24 04:16:23;;;;;;;3.92;2.20;;;4.70;98.40;;;;;;5029523;28;20025;-77
2020/12/24 04:18:49;;;;;;;3.28;2.25;;;4.70;98.40;;;;;;5016509;28;20045;-76
2020/12/24 04:21:14;;;;;;;3.85;2.00;;;4.60;98.30;;;;;;4994235;28;20065;-76
2020/12/24 04:23:40;;;;;;;6.28;2.40;;;4.60;98.30;;;;;;5012785;28;20026;-76
2020/12/24 04:26:06;;;;;;;3.28;1.88;;;4.60;98.30;;;;;;5026312;28;20036;-76
2020/12/24 04:28:32;;;;;;;3.38;1.88;;;4.50;98.10;;;;;;5010541;28;20029;-76
2020/12/24 04:30:58;;;;;;;4.65;1.92;;;4.50;98.10;;;;;;4994141;28;20064;-76
2020/12/24 04:33:23;;;;;;;2.92;1.77;;;4.50;98.20;;;;;;5014007;28;20628;-76
2020/12/24 04:35:53;;;;;;;2.88;1.42;;;4.40;98.00;;;;;;5009247;28;20026;-76
2020/12/24 04:38:18;;;;;;;2.10;1.50;;;4.40;98.10;;;;;;5006957;28;20104;-76
2020/12/24 04:40:49;;;;;;;4.07;1.30;;;4.30;98.00;;;;;;5011621;28;20121;-76
2020/12/24 04:43:16;;;;;;;1.87;1.40;;;4.30;97.90;;;;;;5017574;28;20022;-76
2020/12/24 04:45:41;;;;;;;4.10;1.40;;;4.20;97.90;;;;;;5009799;28;20394;-76
2020/12/24 04:48:09;;;;;;;2.08;1.00;;;4.10;97.80;;;;;;5013752;28;20021;-76
2020/12/24 04:50:39;;;;;;;2.90;1.10;;;4.00;97.70;;;;;;5017088;28;20025;-76
2020/12/24 04:53:07;;;;;;;2.25;1.10;;;4.00;97.80;;;;;;5030004;28;20060;-76
2020/12/24 04:55:32;;;;;;;2.55;1.40;;;4.00;97.90;;;;;;4993541;28;20470;-76
2020/12/24 04:58:00;;;;;;;2.45;1.55;;;4.00;98.10;;;;;;5030954;28;20112;-76
2020/12/24 05:00:26;;;;;;;1.58;0.90;;;4.00;98.30;;;;;;5032941;28;20117;-76
2020/12/24 05:03:08;;;;;;;1.65;1.20;;;4.00;98.10;;;;;;5033400;28;20065;-77
2020/12/24 05:05:35;;;;;;;1.92;1.13;;;4.00;97.80;;;;;;5012893;28;20511;-76
2020/12/24 05:08:03;;;;;;;2.28;1.20;;;4.00;97.90;;;;;;5012037;28;20030;-76
2020/12/24 05:10:29;;;;;;;1.45;1.10;;;3.90;97.80;;;;;;5014948;28;20029;-76
2020/12/24 05:12:55;;;;;;;1.73;1.02;;;3.90;97.90;;;;;;5005718;28;20033;-76
2020/12/24 05:15:26;;;;;;;1.35;1.00;;;3.90;98.00;;;;;;5028809;28;20060;-76
2020/12/24 05:17:53;;;;;;;1.95;1.38;;;3.90;98.00;;;;;;5022119;28;20086;-76
2020/12/24 05:20:19;;;;;;;2.00;1.10;;;3.90;98.00;;;;;;5005995;28;20496;-75
2020/12/24 05:22:45;;;;;;;2.30;1.30;;;3.90;98.00;;;;;;5023921;28;20021;-76
2020/12/24 05:25:19;;;;;;;3.08;1.17;;;3.90;98.10;;;;;;5005490;28;20036;-76
2020/12/24 05:27:54;;;;;;;1.75;1.25;;;4.00;98.20;;;;;;5006507;28;20473;-76
2020/12/24 05:30:27;;;;;;;3.60;1.10;;;3.90;97.90;;;;;;4987304;28;20523;-76
2020/12/24 05:32:53;;;;;;;1.83;0.70;;;3.80;97.90;;;;;;5021386;28;20064;-76
2020/12/24 05:35:23;;;;;;;1.42;0.98;;;3.90;98.00;;;;;;5010341;28;20400;-76
2020/12/24 05:37:50;;;;;;;1.85;0.93;;;3.80;97.70;;;;;;4992899;28;20045;-76
2020/12/24 05:40:27;;;;;;;1.30;0.88;;;3.70;97.70;;;;;;5008629;28;20033;-76
2020/12/24 05:42:58;;;;;;;1.63;0.90;;;3.70;97.90;;;;;;5004305;28;20104;-76
2020/12/24 05:45:30;;;;;;;1.73;1.02;;;3.70;97.80;;;;;;5007983;28;20033;-76
2020/12/24 05:48:12;;;;;;;0.90;0.60;;;3.70;97.90;;;;;;5010149;28;20021;-76
2020/12/24 05:50:40;;;;;;;1.38;0.80;;;3.70;97.90;;;;;;5009592;28;20038;-76
2020/12/24 05:53:06;;;;;;;1.40;0.80;;;3.60;97.90;;;;;;4991719;28;20501;-76
2020/12/24 05:55:38;;;;;;;1.77;1.00;;;3.60;98.00;;;;;;5007494;28;20021;-76
2020/12/24 05:58:04;;;;;;;1.42;0.90;;;3.60;98.10;;;;;;4992466;28;20060;-75
2020/12/24 06:00:32;;;;;;;1.58;0.60;;;3.60;98.00;;;;;;5006149;28;20029;-76
2020/12/24 06:03:08;;;;;;;1.45;0.98;;;3.60;98.00;;;;;;5024269;28;20038;-76
2020/12/24 06:05:46;;;;;;;1.35;0.90;;;3.60;97.90;;;;;;4989585;28;20032;-76
2020/12/24 06:08:17;;;;;;;2.03;1.10;;;3.60;97.90;;;;;;5028343;28;20489;-76
2020/12/24 06:10:46;;;;;;;2.85;0.90;;;3.50;97.80;;;;;;5005514;28;20033;-76
2020/12/24 06:13:16;;;;;;;1.45;0.80;;;3.50;97.90;;;;;;5023436;28;20044;-76
2020/12/24 06:15:47;;;;;;;3.03;1.00;;;3.40;97.90;;;;;;4991352;28;20029;-76
2020/12/24 06:18:14;;;;;;;1.45;0.80;;;3.40;97.90;;;;;;4993402;28;20097;-76
2020/12/24 06:20:48;;;;;;;1.85;1.25;;;3.40;98.10;;;;;;5007731;28;20081;-76
2020/12/24 06:23:16;;;;;;;1.77;0.93;;;3.40;98.10;;;;;;5007074;28;20033;-76
2020/12/24 06:25:41;;;;;;;1.73;1.00;;;3.50;98.10;;;;;;4992239;28;20036;-76
2020/12/24 06:28:11;;;;;;;1.77;1.02;;;3.50;98.00;;;;;;5009513;28;20022;-76
2020/12/24 06:30:38;;;;;;;1.75;1.08;;;3.50;97.90;;;;;;5005391;28;20025;-76
2020/12/24 06:33:03;;;;;;;2.10;1.17;;;3.50;97.90;;;;;;5011683;28;20087;-76
2020/12/24 06:35:40;;;;;;;2.30;1.13;;;3.50;98.00;;;;;;5010580;28;20033;-76
2020/12/24 06:38:07;;;;;;;2.00;1.13;;;3.50;98.10;;;;;;5026346;28;20036;-76
2020/12/24 06:40:38;;;;;;;2.13;1.23;;;3.60;98.00;;;;;;5005889;28;20030;-76
2020/12/24 06:43:08;;;;;;;2.30;1.20;;;3.50;97.90;;;;;;5008803;28;20040;-76
2020/12/24 06:45:41;;;;;;;1.50;1.10;;;3.40;97.80;;;;;;5008144;28;20292;-76
2020/12/24 06:48:15;;;;;;;1.85;1.40;;;3.40;97.70;;;;;;5013311;28;20101;-76
2020/12/24 06:50:46;;;;;;;2.42;1.42;;;3.40;97.90;;;;;;5010525;28;20416;-76
2020/12/24 06:53:23;;;;;;;3.47;1.40;;;3.40;98.00;;;;;;4991667;28;20022;-76
2020/12/24 06:56:14;;;;;;;2.53;1.52;;;3.40;98.10;;;;;;5008668;28;20129;-76
2020/12/24 06:58:46;;;;;;;3.92;1.50;;;3.40;98.10;;;;;;5009274;28;20485;-75
2020/12/24 07:01:16;;;;;;;3.22;1.75;;;3.40;98.20;;;;;;5010420;28;20032;-76
2020/12/24 07:03:42;;;;;;;3.95;1.67;;;3.40;98.20;;;;;;5011070;28;20025;-76
2020/12/24 07:06:09;;;;;;;4.07;2.28;;;3.50;98.30;;;;;;5013333;28;20034;-75
2020/12/24 07:08:34;;;;;;;3.13;1.88;;;3.50;98.30;;;;;;5017857;28;20435;-75
2020/12/24 07:11:04;;;;;;;6.20;2.00;;;3.50;98.20;;;;;;5013496;28;20113;-75
2020/12/24 07:13:37;;;;;;;3.75;2.30;;;3.50;98.30;;;;;;5000379;28;20981;-75
2020/12/24 07:16:04;;;;;;;5.50;2.75;;;3.60;98.30;;;;;;5007537;28;20496;-74
2020/12/24 07:18:36;;;;;;;5.57;2.88;;;3.60;98.30;;;;;;5009689;28;20037;-74
2020/12/24 07:21:10;;;;;;;6.32;2.47;;;3.60;98.30;;;;;;4997799;28;20036;-75
2020/12/24 07:23:37;;;;;;;4.80;2.42;;;3.70;98.40;;;;;;5016134;28;20032;-74
2020/12/24 07:26:05;;;;;;;7.30;3.13;;;3.70;98.40;;;;;;5006623;28;20037;-74
2020/12/24 07:28:36;;;;;;;8.32;3.63;;;3.70;98.40;;;;;;4991628;28;20043;-75
2020/12/24 07:31:04;;;;;;;10.48;5.38;;;3.60;98.30;;;;;;5032391;28;20390;-75
2020/12/24 07:33:30;;;;;;;8.32;4.20;;;3.70;98.30;;;;;;5021009;28;20034;-76
2020/12/24 07:35:56;;;;;;;9.93;3.60;;;3.70;98.40;;;;;;5011678;28;20401;-75
2020/12/24 07:38:24;;;;;;;9.63;3.47;;;3.70;98.30;;;;;;4999229;28;20436;-75
2020/12/24 07:40:50;;;;;;;12.80;4.55;;;3.70;98.30;;;;;;5033537;28;20060;-75
2020/12/24 07:43:16;;;;;;;11.23;4.45;;;3.70;98.40;;;;;;5002709;28;20388;-75
2020/12/24 07:45:43;;;;;;;11.20;4.72;;;3.70;98.40;;;;;;5031184;28;20031;-76
2020/12/24 07:48:17;;;;;;;12.65;4.57;;;3.70;98.40;;;;;;5013690;28;20025;-75
2020/12/24 07:50:45;;;;;;;13.25;4.70;;;3.80;98.50;;;;;;5029122;28;20039;-75
2020/12/24 07:53:16;;;;;;;10.43;4.18;;;3.80;98.50;;;;;;5012538;28;20432;-75
2020/12/24 07:55:41;;;;;;;;;;;3.90;98.50;;;;;;5013237;28;20079;-75
2020/12/24 07:58:08;;;;;;;13.02;3.65;;;3.90;98.50;;;;;;5021848;28;19909;-76
2020/12/24 08:00:49;;;;;;;7.40;3.55;;;3.90;98.50;;;;;;5009111;28;20874;-76
2020/12/24 08:03:18;;;;;;;11.63;3.92;;;4.00;98.50;;;;;;5032503;28;20048;-76
2020/12/24 08:05:48;;;;;;;10.77;3.72;;;4.00;98.50;;;;;;4994045;28;20099;-75
2020/12/24 08:08:22;;;;;;;10.35;3.67;;;4.00;98.40;;;;;;5011924;28;20676;-77
2020/12/24 08:10:47;;;;;;;10.57;3.42;;;4.10;98.50;;;;;;5000246;28;20041;-76
2020/12/24 08:13:13;;;;;;;7.10;3.08;;;4.00;98.50;;;;;;5000632;28;20068;-76
2020/12/24 08:15:45;;;;;;;6.20;2.80;;;4.10;98.40;;;;;;5033982;22;20045;-79
2020/12/24 08:18:14;;;;;;;7.30;2.67;;;4.10;98.40;;;;;;4994930;28;20022;-78
2020/12/24 08:20:43;;;;;;;7.75;3.30;;;4.10;98.40;;;;;;4994665;28;20053;-77
2020/12/24 08:23:17;;;;;;;12.07;3.40;;;4.10;98.30;;;;;;5009628;28;20026;-77
2020/12/24 08:25:51;;;;;;;9.30;3.17;;;4.10;98.30;;;;;;5026894;28;20125;-77
2020/12/24 08:28:17;;;;;;;9.00;2.83;;;4.10;98.40;;;;;;4992187;28;20547;-77
2020/12/24 08:30:48;;;;;;;10.45;3.50;;;4.20;98.40;;;;;;4992917;28;20030;-77
2020/12/24 08:33:14;;;;;;;8.48;2.50;;;4.20;98.40;;;;;;5006382;28;20057;-77
2020/12/24 08:35:40;;;;;;;9.80;2.90;;;4.20;98.30;;;;;;4991348;28;20070;-77
2020/12/24 08:38:32;;;;;;;6.45;2.70;;;4.20;98.40;;;;;;4992943;28;20072;-78
2020/12/24 08:40:57;;;;;;;5.80;2.63;;;4.20;98.40;;;;;;4991391;28;20068;-78
2020/12/24 08:43:28;;;;;;;7.45;2.75;;;4.20;98.30;;;;;;5012728;28;20050;-77
2020/12/24 08:45:54;;;;;;;12.48;2.95;;;4.30;98.30;;;;;;4988924;28;20516;-79
2020/12/24 08:48:29;;;;;;;7.07;2.92;;;4.30;98.30;;;;;;4997771;28;20026;-78
2020/12/24 08:50:55;;;;;;;6.90;3.33;;;4.30;98.40;;;;;;5013078;28;20034;-79
2020/12/24 08:53:22;;;;;;;7.28;3.38;;;4.30;98.30;;;;;;4995695;28;20036;-77
2020/12/24 08:55:48;;;;;;;9.85;3.20;;;4.30;98.30;;;;;;5010194;28;20460;-79
2020/12/24 08:58:13;;;;;;;6.65;2.85;;;4.30;98.30;;;;;;4998667;28;20021;-78
2020/12/24 09:00:39;;;;;;;7.10;2.88;;;4.30;98.20;;;;;;4993865;28;20053;-77
2020/12/24 09:03:24;;;;;;;6.70;3.20;;;4.30;98.30;;;;;;5011312;28;20029;-79
2020/12/24 09:05:50;;;;;;;7.30;3.55;;;4.40;98.30;;;;;;5016079;28;20042;-78
2020/12/24 09:08:26;;;;;;;8.18;3.33;;;4.40;98.20;;;;;;5012744;28;20033;-77
2020/12/24 09:10:52;;;;;;;9.57;3.30;;;4.40;98.20;;;;;;4997081;28;20029;-77
2020/12/24 09:13:18;;;;;;;8.85;3.30;;;4.40;98.20;;;;;;5013974;28;20025;-78
2020/12/24 09:15:44;;;;;;;10.00;4.00;;;4.50;98.20;;;;;;5002591;28;20564;-77
2020/12/24 09:18:10;;;;;;;10.13;3.85;;;4.50;98.20;;;;;;5016037;28;20064;-77
2020/12/24 09:20:36;;;;;;;8.52;3.55;;;4.50;98.10;;;;;;5022350;28;20026;-78
2020/12/24 09:23:08;;;;;;;8.27;3.88;;;4.50;98.00;;;;;;5026549;28;20159;-79
2020/12/24 09:25:44;;;;;;;8.38;3.45;;;4.60;98.00;;;;;;5013894;28;20149;-77
2020/12/24 09:28:26;;;;;;;9.25;4.30;;;4.60;98.00;;;;;;5017789;28;20085;-78
2020/12/24 09:30:58;;;;;;;10.70;4.20;;;4.60;98.00;;;;;;5016427;28;20040;-78
2020/12/24 09:33:23;;;;;;;;;;;4.60;98.00;;;;;;5000286;28;20029;-77
2020/12/24 09:35:49;;;;;;;11.30;4.30;;;4.60;98.10;;;;;;5016768;28;19928;-78
2020/12/24 09:38:15;;;;;;;13.10;5.43;;;4.60;98.00;;;;;;5015020;28;20030;-77
2020/12/24 09:40:41;;;;;;;10.05;4.47;;;4.60;98.00;;;;;;5016980;28;20030;-78
2020/12/24 09:43:08;;;;;;;8.23;4.40;;;4.60;98.00;;;;;;4997210;28;20113;-77
2020/12/24 09:45:35;;;;;;;10.90;4.55;;;4.60;98.10;;;;;;5012085;28;20103;-77
2020/12/24 09:48:01;;;;;;;13.18;5.43;;;4.60;98.10;;;;;;5004924;28;20041;-78
2020/12/24 09:50:27;;;;;;;10.00;5.00;;;4.60;98.10;;;;;;5005241;28;20033;-77
2020/12/24 09:52:53;;;;;;;10.73;5.35;;;4.70;98.00;;;;;;5015597;28;20058;-77
2020/12/24 09:55:19;;;;;;;14.00;6.80;;;4.70;98.00;;;;;;5015822;28;20160;-78
2020/12/24 09:57:44;;;;;;;13.65;6.03;;;4.70;98.10;;;;;;5016046;28;20041;-78
2020/12/24 10:00:12;;;;;;;15.80;6.60;;;4.70;98.10;;;;;;5016156;28;20452;-76
2020/12/24 10:02:38;;;;;;;17.95;6.50;;;4.70;98.20;;;;;;5017624;28;20033;-79
2020/12/24 10:05:07;;;;;;;16.42;7.15;;;4.70;98.20;;;;;;5019939;28;20018;-79
2020/12/24 10:07:34;;;;;;;16.67;7.32;;;4.70;98.20;;;;;;5023438;28;20149;-79
2020/12/24 10:10:00;;;;;;;14.23;7.13;;;4.70;98.20;;;;;;5039229;28;20059;-80
2020/12/24 10:12:29;;;;;;;15.15;7.55;;;4.70;98.20;;;;;;5020460;28;20034;-79
2020/12/24 10:14:55;;;;;;;20.45;8.20;;;4.70;98.20;;;;;;5006147;28;20041;-79
2020/12/24 10:17:21;;;;;;;14.25;6.82;;;4.70;98.10;;;;;;5017779;28;20030;-79
2020/12/24 10:19:47;;;;;;;14.00;6.95;;;4.80;98.10;;;;;;5016742;28;20072;-78
2020/12/24 10:22:14;;;;;;;17.67;8.23;;;4.80;98.10;;;;;;5018684;28;20692;-79
2020/12/24 10:24:43;;;;;;;25.48;9.40;;;4.80;98.10;;;;;;5004244;28;20022;-79
2020/12/24 10:27:16;;;;;;;19.45;8.25;;;4.80;98.30;;;;;;5020092;28;20042;-78
2020/12/24 10:29:42;;;;;;;17.95;7.22;;;4.80;98.20;;;;;;5020946;28;20025;-78
2020/12/24 10:32:08;;;;;;;20.05;7.60;;;4.80;98.20;;;;;;5019035;28;20049;-79
2020/12/24 10:34:34;;;;;;;22.17;8.93;;;4.80;98.20;;;;;;4995173;28;20512;-79
2020/12/24 10:37:00;;;;;;;30.20;10.05;;;4.90;98.40;;;;;;5013716;28;20041;-79
2020/12/24 10:39:30;;;;;;;31.38;10.85;;;4.90;98.20;;;;;;5012775;28;20026;-78
2020/12/24 10:41:58;;;;;;;31.90;11.48;;;4.90;98.20;;;;;;5003277;28;20034;-78
2020/12/24 10:44:24;;;;;;;40.83;13.05;;;4.90;98.30;;;;;;5017818;28;20021;-78
2020/12/24 10:46:54;;;;;;;43.47;13.60;;;4.90;98.30;;;;;;4999581;28;20489;-79
2020/12/24 10:49:20;;;;;;;50.45;15.70;;;4.90;98.40;;;;;;5002430;28;20025;-79
2020/12/24 10:51:46;;;;;;;47.70;16.30;;;5.00;98.30;;;;;;5019716;28;20532;-80
2020/12/24 10:54:12;;;;;;;52.65;16.67;;;5.00;98.40;;;;;;5003578;28;20029;-80
2020/12/24 10:56:37;;;;;;;62.00;19.27;;;5.00;98.30;;;;;;5016160;28;20033;-82
2020/12/24 10:59:03;;;;;;;59.00;17.25;;;5.10;98.30;;;;;;4999772;28;20044;-76
2020/12/24 11:01:30;;;;;;;53.08;18.33;;;5.10;98.30;;;;;;5010134;28;20029;-79
2020/12/24 11:03:55;;;;;;;48.88;17.05;;;5.10;98.30;;;;;;5015938;28;20037;-79
2020/12/24 11:06:23;;;;;;;51.10;18.98;;;5.10;98.30;;;;;;5012634;28;20025;-78
2020/12/24 11:08:50;;;;;;;50.72;17.17;;;5.10;98.30;;;;;;4997123;28;20061;-76
2020/12/24 11:11:17;;;;;;;52.47;17.98;;;5.10;98.30;;;;;;4997420;28;20116;-78
2020/12/24 11:13:44;;;;;;;63.42;19.50;;;5.10;98.30;;;;;;5019238;28;20493;-77
2020/12/24 11:16:10;;;;;;;51.78;17.75;;;5.20;98.30;;;;;;5011068;28;20116;-77
2020/12/24 11:18:38;;;;;;;51.22;17.88;;;5.20;98.30;;;;;;5012821;28;20432;-77
2020/12/24 11:21:05;;;;;;;55.90;18.60;;;5.20;98.30;;;;;;5013294;28;20109;-77
2020/12/24 11:23:31;;;;;;;59.17;18.95;;;5.20;98.30;;;;;;5013857;28;20033;-77
2020/12/24 11:25:57;;;;;;;50.63;16.65;;;5.20;98.30;;;;;;5010637;28;20033;-75
2020/12/24 11:28:22;;;;;;;59.33;18.48;;;5.20;98.30;;;;;;4994828;28;20026;-77
2020/12/24 11:30:48;;;;;;;47.85;19.02;;;5.30;98.30;;;;;;4996813;28;20112;-77
2020/12/24 11:33:14;;;;;;;41.10;16.65;;;5.30;98.20;;;;;;4995950;28;20030;-76
2020/12/24 11:35:39;;;;;;;56.95;17.75;;;5.30;98.30;;;;;;5012484;28;20042;-76
2020/12/24 11:38:05;;;;;;;59.22;19.40;;;5.40;98.50;;;;;;5010643;28;20036;-77
2020/12/24 11:40:31;;;;;;;50.88;17.63;;;5.80;99.20;;;;;;5005591;28;20501;-77
2020/12/24 11:42:56;;;;;;;49.88;17.33;;;6.00;99.10;;;;;;5007603;28;20067;-75
2020/12/24 11:45:22;;;;;;;41.28;17.15;;;6.00;97.70;;;;;;4991498;28;20069;-75
2020/12/24 11:47:48;;;;;;;46.30;16.50;;;5.90;97.00;;;;;;4992905;28;20026;-75
2020/12/24 11:50:13;;;;;;;41.45;15.43;;;5.80;97.20;;;;;;5003983;28;20029;-75
2020/12/24 11:52:39;;;;;;;46.10;17.20;;;5.80;97.30;;;;;;4973532;28;20037;-75
2020/12/24 11:55:06;;;;;;;42.95;16.20;;;5.70;97.40;;;;;;5010709;28;20033;-76
2020/12/24 11:57:35;;;;;;;37.55;15.05;;;5.70;97.60;;;;;;5011128;28;20026;-76
2020/12/24 12:00:01;;;;;;;41.60;17.13;;;5.60;97.60;;;;;;5008223;28;20041;-76
2020/12/24 12:02:28;;;;;;;48.65;18.45;;;5.60;97.70;;;;;;5008452;28;20030;-76
2020/12/24 12:04:53;;;;;;;49.17;18.25;;;5.60;97.60;;;;;;5010966;28;20481;-76
2020/12/24 12:07:19;;;;;;;49.90;18.80;;;5.60;97.70;;;;;;4997508;28;20018;-77
2020/12/24 12:09:45;;;;;;;57.78;19.33;;;5.60;97.80;;;;;;5000650;28;20416;-77
2020/12/24 12:12:11;;;;;;;57.22;20.67;;;5.60;97.80;;;;;;5012957;28;20025;-79
2020/12/24 12:14:36;;;;;;;56.20;20.70;;;5.60;97.90;;;;;;5012089;28;20038;-73
2020/12/24 12:17:02;;;;;;;50.45;18.77;;;5.60;97.90;;;;;;5007905;28;20031;-78
2020/12/24 12:19:28;;;;;;;53.25;18.45;;;5.60;98.00;;;;;;5013656;28;20489;-74
2020/12/24 12:21:53;;;;;;;46.05;16.95;;;5.60;97.90;;;;;;4995471;28;20029;-77
2020/12/24 12:24:19;;;;;;;37.10;13.52;;;5.60;98.00;;;;;;5015427;28;20091;-79
2020/12/24 12:26:45;;;;;;;36.88;13.23;;;5.60;97.80;;;;;;4998467;28;20030;-78
2020/12/24 12:29:11;;;;;;;29.17;12.20;;;5.60;97.70;;;;;;5018571;28;20068;-79
2020/12/24 12:31:37;;;;;;;28.38;11.60;;;5.60;97.70;;;;;;5015244;28;20038;-79
2020/12/24 12:34:02;;;;;;;26.15;10.70;;;5.50;97.80;;;;;;4999698;28;20113;-77
2020/12/24 12:36:28;;;;;;;23.55;9.73;;;5.60;97.70;;;;;;4989938;28;20893;-77
2020/12/24 12:38:54;;;;;;;24.90;10.45;;;5.60;97.70;;;;;;4995306;28;20030;-77
2020/12/24 12:41:21;;;;;;;25.40;10.43;;;5.50;97.50;;;;;;4996042;28;20030;-77
2020/12/24 12:43:47;;;;;;;22.85;10.50;;;5.60;97.70;;;;;;5011673;28;20075;-77
2020/12/24 12:46:25;;;;;;;24.65;10.82;;;5.50;97.70;;;;;;4998690;28;20477;-79
2020/12/24 12:48:52;;;;;;;29.30;11.15;;;5.60;98.00;;;;;;5014872;28;20030;-78
2020/12/24 12:51:18;;;;;;;30.73;11.38;;;5.60;97.90;;;;;;5008162;28;20032;-77